Time;durP1;ratioP1;P1;durP2;ratioP2;P2;SDS_P1;SDS_P2;PMS_P1;PMS_P2;Temp;Humidity;BMP_temperature;BMP_pressure;BME280_temperature;BME280_humidity;BME280_pressure;Samples;Min_cycle;Max_cycle;Signal;HPM_P1;HPM_P2
2021/09/07 00:02:06;;;;;;;18.98;11.93;;;16.40;96.40;;;16.40;87.47;101360.56;5007138;28;20108;-67
2021/09/07 00:04:33;;;;;;;18.98;11.48;;;16.50;96.70;;;16.37;87.73;101354.63;5007526;28;20136;-67
2021/09/07 00:07:01;;;;;;;18.55;11.38;;;16.40;96.80;;;16.38;88.12;101351.69;4992985;28;20093;-67
2021/09/07 00:09:28;;;;;;;20.33;11.63;;;16.40;96.80;;;16.39;87.67;101347.91;4991127;28;20113;-68
2021/09/07 00:11:57;;;;;;;18.13;11.80;;;16.40;96.80;;;16.37;87.66;101355.50;5005609;28;20046;-66
2021/09/07 00:14:27;;;;;;;20.60;11.43;;;16.40;96.80;;;16.35;87.73;101352.09;5007055;28;20628;-67
2021/09/07 00:16:55;;;;;;;16.88;10.57;;;16.40;97.00;;;16.32;87.91;101352.50;5007545;28;20064;-67
2021/09/07 00:19:23;;;;;;;18.02;11.48;;;16.40;97.00;;;16.32;87.71;101346.19;5008834;28;20050;-67
2021/09/07 00:21:51;;;;;;;21.10;11.55;;;16.40;96.90;;;16.31;87.79;101356.28;5010094;28;20109;-67
2021/09/07 00:24:19;;;;;;;18.75;11.90;;;16.30;96.90;;;16.31;87.84;101352.72;5008012;28;20104;-67
2021/09/07 00:26:46;;;;;;;17.05;11.45;;;16.30;97.10;;;16.30;88.08;101354.63;5010697;28;20042;-67
2021/09/07 00:29:14;;;;;;;19.10;11.68;;;16.30;97.30;;;16.29;87.57;101344.66;5007769;28;20128;-67
2021/09/07 00:31:42;;;;;;;17.27;10.52;;;16.30;97.00;;;16.29;87.29;101341.91;5010609;28;20107;-66
2021/09/07 00:34:11;;;;;;;17.10;11.02;;;16.30;96.90;;;16.21;87.47;101333.84;4993370;28;20425;-67
2021/09/07 00:36:38;;;;;;;17.65;12.02;;;16.30;96.90;;;16.21;87.51;101339.34;5010618;28;20049;-67
2021/09/07 00:39:06;;;;;;;18.25;11.82;;;16.20;96.80;;;16.19;87.68;101338.69;5009088;28;20137;-67
2021/09/07 00:41:33;;;;;;;19.35;11.23;;;16.20;96.90;;;16.17;87.73;101343.53;5005971;28;20206;-67
2021/09/07 00:44:00;;;;;;;19.13;11.60;;;16.20;97.20;;;16.16;87.94;101347.31;4989869;28;20573;-66
2021/09/07 00:46:28;;;;;;;21.67;11.55;;;16.20;97.20;;;16.17;87.79;101344.38;4989893;28;20054;-67
2021/09/07 00:48:56;;;;;;;19.52;10.90;;;16.20;97.20;;;16.16;87.50;101341.84;5004505;28;20125;-67
2021/09/07 00:51:26;;;;;;;17.60;11.68;;;16.20;97.00;;;16.17;87.66;101346.28;5008918;28;20528;-67
2021/09/07 00:53:53;;;;;;;20.25;11.68;;;16.10;97.30;;;16.15;87.48;101345.66;5010761;28;20049;-67
2021/09/07 00:56:22;;;;;;;19.90;12.38;;;16.10;97.20;;;16.15;87.30;101342.91;5010506;28;20065;-67
2021/09/07 00:58:51;;;;;;;18.92;10.98;;;16.10;97.20;;;16.11;87.61;101322.38;5009805;28;20050;-67
2021/09/07 01:01:18;;;;;;;20.73;12.05;;;16.10;97.50;;;16.10;87.70;101331.66;5009836;28;20054;-66
2021/09/07 01:03:47;;;;;;;17.10;11.48;;;16.10;97.50;;;16.12;87.58;101329.56;5010394;28;20480;-67
2021/09/07 01:06:17;;;;;;;17.95;11.13;;;16.10;97.40;;;16.09;87.36;101324.44;5008640;28;20139;-67
2021/09/07 01:08:45;;;;;;;19.73;11.85;;;16.00;97.30;;;15.98;88.00;101318.47;4999735;28;20038;-67
2021/09/07 01:11:14;;;;;;;17.83;10.93;;;16.10;97.50;;;16.00;87.88;101326.53;4990562;28;20053;-66
2021/09/07 01:13:41;;;;;;;17.88;10.98;;;16.00;97.30;;;16.01;87.76;101318.09;5009158;28;20063;-67
2021/09/07 01:16:10;;;;;;;21.10;12.10;;;16.00;97.50;;;16.02;87.71;101325.25;5010200;28;20451;-67
2021/09/07 01:18:38;;;;;;;16.80;10.90;;;16.00;97.60;;;16.03;87.76;101328.88;4999385;28;20054;-67
2021/09/07 01:21:09;;;;;;;18.80;11.80;;;16.00;97.50;;;15.99;87.79;101330.31;4990362;28;20221;-67
2021/09/07 01:23:40;;;;;;;17.88;11.23;;;16.00;97.60;;;15.93;87.86;101331.94;4990595;28;20051;-67
2021/09/07 01:26:10;;;;;;;;;;;16.00;97.50;;;15.95;87.75;101324.38;4990755;28;20050;-67
2021/09/07 01:28:38;;;;;;;19.58;11.35;;;16.00;97.60;;;15.91;87.70;101322.22;4999974;28;20010;-67
2021/09/07 01:31:08;;;;;;;20.77;11.15;;;15.90;97.40;;;15.91;87.87;101334.06;4990907;28;20085;-67
2021/09/07 01:33:37;;;;;;;17.35;11.05;;;15.90;97.70;;;15.88;88.09;101326.25;4990234;28;20073;-67
2021/09/07 01:36:06;;;;;;;19.60;10.90;;;15.90;97.60;;;15.91;87.80;101320.31;4988486;28;20073;-67
2021/09/07 01:38:34;;;;;;;20.45;12.30;;;15.90;97.60;;;15.92;87.60;101319.28;4983284;28;20049;-67
2021/09/07 01:41:03;;;;;;;19.23;11.55;;;15.90;97.80;;;15.93;87.72;101320.13;5009554;28;20501;-67
2021/09/07 01:43:31;;;;;;;18.20;11.82;;;15.90;97.80;;;15.93;87.41;101314.66;5009713;28;20143;-67
2021/09/07 01:45:59;;;;;;;19.98;11.23;;;15.90;97.90;;;15.88;87.60;101319.88;5009599;28;20042;-67
2021/09/07 01:48:27;;;;;;;17.25;10.95;;;15.90;97.80;;;15.89;87.39;101318.84;5006491;28;20034;-67
2021/09/07 01:50:56;;;;;;;17.60;11.20;;;15.80;97.60;;;15.85;87.61;101314.81;5009334;28;20163;-67
2021/09/07 01:53:24;;;;;;;19.33;10.80;;;15.80;97.70;;;15.83;87.77;101317.75;5009535;28;20124;-67
2021/09/07 01:55:52;;;;;;;18.08;11.18;;;15.80;97.70;;;15.84;87.63;101322.19;5009499;28;20116;-68
2021/09/07 01:58:21;;;;;;;18.13;11.65;;;15.80;97.80;;;15.77;87.65;101321.28;5001517;28;20556;-67
2021/09/07 02:00:50;;;;;;;18.33;11.57;;;15.70;97.70;;;15.76;87.55;101316.84;4989489;28;20043;-67
2021/09/07 02:03:17;;;;;;;20.20;11.48;;;15.80;97.70;;;15.78;87.51;101314.75;5004995;28;20061;-67
2021/09/07 02:05:45;;;;;;;18.63;11.73;;;15.70;97.70;;;15.79;87.22;101314.53;4989280;28;20117;-67
2021/09/07 02:08:14;;;;;;;16.70;10.70;;;15.70;97.80;;;15.78;87.35;101322.97;4991115;28;20080;-67
2021/09/07 02:10:41;;;;;;;16.10;10.77;;;15.70;97.70;;;15.74;87.58;101313.44;4988831;28;20142;-67
2021/09/07 02:13:10;;;;;;;18.40;10.57;;;15.70;97.70;;;15.76;87.41;101319.59;5003768;28;20073;-67
2021/09/07 02:15:37;;;;;;;16.38;9.60;;;15.70;97.80;;;15.75;87.22;101312.41;5009564;28;20064;-67
2021/09/07 02:18:06;;;;;;;17.65;10.85;;;15.70;97.70;;;15.74;87.05;101310.69;5006793;28;20104;-67
2021/09/07 02:20:34;;;;;;;18.70;10.77;;;15.70;97.70;;;15.71;87.26;101311.09;5008917;28;20548;-67
2021/09/07 02:23:06;;;;;;;18.05;10.10;;;15.60;97.60;;;15.71;87.10;101305.59;5008763;28;20045;-67
2021/09/07 02:25:34;;;;;;;18.13;10.30;;;15.60;97.60;;;15.64;87.52;101303.63;5008995;28;20066;-67
2021/09/07 02:28:02;;;;;;;20.42;10.82;;;15.60;97.60;;;15.66;87.33;101303.44;5003276;28;20044;-67
2021/09/07 02:30:30;;;;;;;16.27;10.23;;;15.60;97.60;;;15.66;87.68;101308.09;5000242;28;20049;-67
2021/09/07 02:33:04;;;;;;;16.20;10.02;;;15.60;97.70;;;15.63;87.84;101304.69;5009349;28;20050;-67
2021/09/07 02:35:33;;;;;;;16.92;10.07;;;15.60;97.60;;;15.64;87.72;101306.38;5008689;28;20042;-67
2021/09/07 02:38:03;;;;;;;16.70;10.77;;;15.60;97.60;;;15.67;87.52;101304.28;5002640;28;20069;-67
2021/09/07 02:40:31;;;;;;;15.82;10.02;;;15.60;97.60;;;15.67;87.45;101299.66;4989404;28;20054;-67
2021/09/07 02:43:00;;;;;;;20.58;9.80;;;15.60;97.60;;;15.67;87.59;101298.78;5007290;28;20077;-67
2021/09/07 02:45:28;;;;;;;18.55;10.52;;;15.60;97.90;;;15.67;87.44;101307.03;5006947;28;20050;-67
2021/09/07 02:47:56;;;;;;;17.33;10.35;;;15.60;97.80;;;15.67;87.60;101298.78;5003996;28;20422;-67
2021/09/07 02:50:25;;;;;;;15.80;9.82;;;15.60;98.00;;;15.64;87.67;101295.41;5007786;28;20042;-67
2021/09/07 02:52:53;;;;;;;21.42;11.18;;;15.60;97.80;;;15.60;87.67;101299.59;5007340;28;20042;-67
2021/09/07 02:55:21;;;;;;;17.52;10.75;;;15.60;97.80;;;15.61;87.62;101304.03;5007665;28;20038;-67
2021/09/07 02:57:49;;;;;;;16.27;10.43;;;15.60;97.90;;;15.63;87.67;101299.19;5005043;28;20518;-67
2021/09/07 03:00:17;;;;;;;20.58;10.20;;;15.60;97.90;;;15.64;87.64;101300.03;5007541;28;20128;-67
2021/09/07 03:02:44;;;;;;;16.30;10.25;;;15.60;97.90;;;15.64;87.75;101295.41;5007109;28;20053;-67
2021/09/07 03:05:13;;;;;;;15.95;10.18;;;15.60;98.10;;;15.61;87.94;101295.81;5006802;28;20502;-67
2021/09/07 03:07:42;;;;;;;18.33;10.52;;;15.60;98.20;;;15.55;88.37;101290.25;5006311;28;20053;-67
2021/09/07 03:10:10;;;;;;;16.70;10.25;;;15.60;98.30;;;15.54;88.45;101303.13;5007240;28;20045;-67
2021/09/07 03:12:38;;;;;;;16.58;9.98;;;15.60;98.20;;;15.57;88.29;101294.50;4997271;28;20035;-67
2021/09/07 03:15:07;;;;;;;19.02;11.20;;;15.60;98.30;;;15.55;88.46;101296.59;4987564;28;20724;-67
2021/09/07 03:17:35;;;;;;;19.52;10.45;;;15.60;98.50;;;15.56;88.77;101295.53;4989496;28;20037;-67
2021/09/07 03:20:03;;;;;;;16.77;10.00;;;15.60;98.40;;;15.55;88.89;101298.47;5007225;28;20038;-67
2021/09/07 03:22:32;;;;;;;16.80;10.27;;;15.60;98.60;;;15.57;89.06;101304.63;5006776;28;20041;-67
2021/09/07 03:25:02;;;;;;;17.83;10.05;;;15.60;98.60;;;15.61;89.18;101300.44;5007227;28;20054;-68
2021/09/07 03:27:30;;;;;;;16.92;10.70;;;15.70;98.80;;;15.61;89.06;101303.16;5006175;28;20041;-68
2021/09/07 03:29:57;;;;;;;19.38;11.15;;;15.70;98.80;;;15.63;89.08;101304.69;5005699;28;20137;-67
2021/09/07 03:32:26;;;;;;;17.52;10.30;;;15.70;99.00;;;15.63;89.17;101306.56;5006918;28;20337;-67
2021/09/07 03:34:54;;;;;;;16.92;11.05;;;15.70;99.10;;;15.61;89.50;101312.28;5006832;28;20076;-67
2021/09/07 03:37:22;;;;;;;15.40;10.20;;;15.70;99.10;;;15.62;89.56;101308.47;5006190;28;20045;-67
2021/09/07 03:39:50;;;;;;;16.02;10.15;;;15.70;99.10;;;15.64;89.50;101311.00;5006365;28;20037;-67
2021/09/07 03:42:19;;;;;;;15.50;10.50;;;15.70;99.10;;;15.63;89.66;101307.44;5007071;28;20233;-67
2021/09/07 03:44:48;;;;;;;18.52;10.82;;;15.70;99.10;;;15.66;89.63;101300.69;5007256;28;20056;-67
2021/09/07 03:47:15;;;;;;;20.35;11.60;;;15.70;99.10;;;15.65;89.70;101290.78;5006629;28;20143;-67
2021/09/07 03:49:42;;;;;;;19.15;10.95;;;15.70;99.10;;;15.64;90.00;101289.06;4988228;28;20081;-67
2021/09/07 03:52:10;;;;;;;16.58;10.02;;;15.80;99.30;;;15.67;90.16;101296.03;4986265;28;20061;-67
2021/09/07 03:54:38;;;;;;;15.85;9.50;;;15.80;99.40;;;15.69;90.18;101285.72;4986904;28;20050;-67
2021/09/07 03:57:06;;;;;;;17.05;10.60;;;15.80;99.50;;;15.69;90.33;101296.69;4987247;28;20038;-67
2021/09/07 03:59:36;;;;;;;22.67;11.45;;;15.80;99.70;;;15.68;90.82;101297.75;5005598;28;20171;-67
2021/09/07 04:02:04;;;;;;;18.65;10.07;;;15.80;99.80;;;15.68;90.85;101295.00;5006357;28;20513;-67
2021/09/07 04:04:32;;;;;;;17.52;10.32;;;15.90;99.90;;;15.70;90.94;101288.25;5006244;28;20120;-68
2021/09/07 04:07:00;;;;;;;19.63;10.90;;;15.80;99.80;;;15.73;90.91;101298.00;5006649;28;20065;-67
2021/09/07 04:09:29;;;;;;;19.30;11.05;;;15.90;99.90;;;15.70;91.20;101292.91;5004601;28;20589;-67
2021/09/07 04:11:57;;;;;;;18.75;11.05;;;15.90;99.90;;;15.72;91.21;101301.78;5004708;28;20516;-67
2021/09/07 04:14:25;;;;;;;17.52;10.68;;;15.90;99.90;;;15.73;91.25;101303.50;5006457;28;20042;-68
2021/09/07 04:16:54;;;;;;;16.48;10.63;;;15.90;99.90;;;15.75;91.36;101306.94;5006189;28;20046;-67
2021/09/07 04:19:22;;;;;;;18.80;11.02;;;15.90;99.90;;;15.74;91.44;101307.97;5005420;28;20042;-69
2021/09/07 04:21:49;;;;;;;17.75;10.82;;;15.90;99.90;;;15.71;91.66;101314.66;5005923;28;20050;-67
2021/09/07 04:24:17;;;;;;;21.92;12.18;;;15.90;99.90;;;15.69;92.07;101308.53;5006837;28;20052;-67
2021/09/07 04:26:44;;;;;;;17.40;10.63;;;16.00;99.90;;;15.73;91.84;101298.00;5005972;28;20152;-67
2021/09/07 04:29:11;;;;;;;19.23;10.88;;;16.00;99.90;;;15.77;91.77;101302.09;4990594;28;20054;-66
2021/09/07 04:31:40;;;;;;;19.98;11.98;;;16.00;99.90;;;15.69;92.18;101300.31;4985253;28;20465;-67
2021/09/07 04:34:08;;;;;;;16.75;10.82;;;16.00;99.90;;;15.73;92.14;101296.13;4986566;28;20054;-67
2021/09/07 04:36:36;;;;;;;21.40;11.43;;;16.00;99.90;;;15.76;92.38;101301.25;5011278;23;20530;-73
2021/09/07 04:39:03;;;;;;;21.83;11.90;;;16.10;99.90;;;15.79;92.05;101299.97;5025609;28;20115;-72
2021/09/07 04:41:30;;;;;;;17.45;11.40;;;16.10;99.90;;;15.80;92.14;101301.66;5027140;28;20044;-73
2021/09/07 04:43:59;;;;;;;18.70;11.07;;;16.10;99.90;;;15.82;92.36;101299.56;5029356;28;20044;-72
2021/09/07 04:46:27;;;;;;;18.85;11.55;;;16.10;99.90;;;15.81;92.17;101306.97;5008250;28;20068;-74
2021/09/07 04:48:55;;;;;;;16.88;10.82;;;16.10;99.90;;;15.80;92.28;101301.66;5004411;28;20104;-75
2021/09/07 04:51:26;;;;;;;18.75;10.63;;;16.10;99.90;;;15.77;92.50;101302.09;5008425;28;20560;-74
2021/09/07 04:53:56;;;;;;;19.73;11.20;;;16.10;99.90;;;15.73;92.83;101295.28;5005861;28;20472;-73
2021/09/07 04:56:23;;;;;;;18.30;11.77;;;16.10;99.90;;;15.78;92.64;101303.75;5007129;28;20057;-72
2021/09/07 04:58:50;;;;;;;20.08;10.85;;;16.10;99.90;;;15.80;92.74;101287.94;4996328;28;20100;-75
2021/09/07 05:01:19;;;;;;;19.60;11.15;;;16.20;99.90;;;15.82;92.69;101302.31;4988596;28;20058;-72
2021/09/07 05:03:46;;;;;;;18.30;11.45;;;16.20;99.90;;;15.81;92.96;101304.22;4987879;28;20426;-73
2021/09/07 05:06:13;;;;;;;18.98;11.15;;;16.20;99.90;;;15.83;92.87;101309.50;5006924;28;20050;-73
2021/09/07 05:08:42;;;;;;;20.83;11.85;;;16.20;99.90;;;15.85;92.61;101307.41;5009050;28;20136;-73
2021/09/07 05:11:09;;;;;;;19.17;10.98;;;16.20;99.70;;;15.87;92.59;101310.81;4997215;28;20046;-73
2021/09/07 05:13:36;;;;;;;20.42;11.10;;;16.30;99.80;;;15.89;92.64;101305.97;4992578;28;20126;-73
2021/09/07 05:16:05;;;;;;;17.00;11.27;;;16.20;99.90;;;15.90;92.79;101310.41;4992747;28;20058;-73
2021/09/07 05:18:32;;;;;;;21.85;11.73;;;16.20;99.90;;;15.93;92.72;101315.47;5003555;28;20084;-73
2021/09/07 05:21:00;;;;;;;19.20;10.88;;;16.20;99.90;;;15.93;92.88;101315.47;5012475;28;20066;-73
2021/09/07 05:23:27;;;;;;;21.25;12.23;;;16.30;99.90;;;15.94;93.06;101314.44;5013335;28;20679;-70
2021/09/07 05:25:56;;;;;;;19.55;11.95;;;16.30;99.90;;;15.95;93.00;101312.53;5012515;28;20049;-71
2021/09/07 05:28:23;;;;;;;18.75;12.13;;;16.30;99.90;;;15.95;93.11;101313.38;5011563;28;20042;-72
2021/09/07 05:30:51;;;;;;;18.45;11.75;;;16.30;99.90;;;15.93;93.17;101311.91;5012316;28;20045;-70
2021/09/07 05:33:18;;;;;;;21.17;11.63;;;16.30;99.90;;;15.88;93.67;101308.91;5012691;28;20061;-71
2021/09/07 05:35:45;;;;;;;21.35;11.93;;;16.40;99.90;;;15.93;93.63;101304.50;5010383;28;20660;-70
2021/09/07 05:38:13;;;;;;;18.38;11.68;;;16.40;99.90;;;15.93;93.97;101311.91;5010551;28;20042;-71
2021/09/07 05:40:40;;;;;;;19.63;11.73;;;16.40;99.90;;;15.93;94.41;101311.91;5011284;28;20054;-72
2021/09/07 05:43:09;;;;;;;22.88;13.10;;;16.50;99.90;;;15.94;94.22;101300.72;5010263;28;20074;-72
2021/09/07 05:45:36;;;;;;;21.15;12.30;;;16.50;99.90;;;15.98;94.32;101304.75;5010298;28;20053;-72
2021/09/07 05:48:05;;;;;;;22.67;11.82;;;16.50;99.90;;;16.02;94.30;101307.94;5010057;28;20386;-70
2021/09/07 05:50:32;;;;;;;21.88;11.15;;;16.50;99.90;;;16.03;94.53;101316.00;5010726;28;20465;-70
2021/09/07 05:52:59;;;;;;;18.98;11.65;;;16.60;99.90;;;16.07;94.57;101307.34;5012154;28;20049;-70
2021/09/07 05:55:27;;;;;;;17.98;11.10;;;16.60;99.90;;;16.05;95.01;101309.44;5011281;28;20058;-71
2021/09/07 05:57:55;;;;;;;20.85;12.10;;;16.60;99.90;;;16.03;95.11;101313.25;5010025;28;20112;-70
2021/09/07 06:00:24;;;;;;;20.00;12.70;;;16.70;99.90;;;16.06;94.93;101306.50;5010737;28;20060;-70
2021/09/07 06:02:55;;;;;;;23.85;11.98;;;16.70;99.90;;;16.09;94.76;101302.50;5011836;28;20046;-70
2021/09/07 06:05:22;;;;;;;17.88;11.68;;;16.70;99.90;;;16.12;94.61;101311.19;5010559;28;20077;-70
2021/09/07 06:07:49;;;;;;;18.27;11.55;;;16.70;99.90;;;16.12;94.89;101313.09;5005737;28;20039;-70
2021/09/07 06:10:17;;;;;;;21.90;11.93;;;16.80;99.70;;;16.15;94.74;101307.19;4995346;28;20658;-71
2021/09/07 06:12:44;;;;;;;21.92;12.25;;;16.80;99.70;;;16.15;95.17;101302.53;5010384;28;20052;-71
2021/09/07 06:15:12;;;;;;;19.63;11.48;;;16.90;99.70;;;16.16;95.39;101300.63;5009445;28;20038;-72
2021/09/07 06:17:40;;;;;;;19.48;11.07;;;17.00;99.50;;;16.17;95.84;101305.09;5008322;28;20597;-71
2021/09/07 06:20:09;;;;;;;17.63;11.57;;;17.00;99.50;;;16.17;96.28;101313.34;4988880;28;20915;-72
2021/09/07 06:22:37;;;;;;;22.27;11.32;;;17.10;99.70;;;16.22;96.42;101324.53;4991112;28;20097;-71
2021/09/07 06:25:06;;;;;;;17.70;11.75;;;17.10;99.70;;;16.22;96.67;101316.28;5009859;28;20057;-71
2021/09/07 06:27:33;;;;;;;17.67;11.52;;;17.20;99.80;;;16.25;96.75;101317.81;5008171;28;20050;-71
2021/09/07 06:30:01;;;;;;;23.23;12.77;;;17.20;99.40;;;16.27;96.15;101316.53;4990898;28;20506;-72
2021/09/07 06:32:28;;;;;;;25.48;13.60;;;17.20;98.50;;;16.33;95.80;101320.38;4990687;28;20966;-73
2021/09/07 06:34:58;;;;;;;22.58;13.15;;;17.30;98.50;;;16.35;95.86;101324.63;4990277;28;20053;-72
2021/09/07 06:37:25;;;;;;;23.42;13.95;;;17.40;98.40;;;16.37;95.68;101317.03;4992859;28;20073;-73
2021/09/07 06:39:53;;;;;;;25.33;13.48;;;17.50;98.00;;;16.41;95.56;101323.81;5008085;28;20756;-72
2021/09/07 06:42:20;;;;;;;28.90;14.25;;;17.60;97.50;;;16.42;95.33;101324.66;5001087;28;20075;-72
2021/09/07 06:44:47;;;;;;;30.70;13.45;;;17.60;96.90;;;16.45;95.43;101324.28;5002270;28;20042;-73
2021/09/07 06:47:15;;;;;;;31.63;13.50;;;17.70;96.80;;;16.48;96.12;101323.84;4990678;28;20085;-71
2021/09/07 06:49:42;;;;;;;23.02;13.40;;;17.80;96.80;;;16.51;95.39;101331.69;4995141;28;20061;-71
2021/09/07 06:52:11;;;;;;;27.55;13.27;;;17.90;95.90;;;16.55;94.83;101330.22;5008141;28;20136;-72
2021/09/07 06:54:38;;;;;;;24.48;13.70;;;18.00;95.20;;;16.59;94.45;101319.69;4999800;28;20113;-72
2021/09/07 06:57:07;;;;;;;26.80;14.27;;;18.00;95.10;;;16.64;94.94;101328.16;4990062;28;20069;-73
2021/09/07 06:59:34;;;;;;;21.58;13.50;;;18.10;95.20;;;16.66;94.98;101336.19;5008955;28;20574;-71
2021/09/07 07:02:02;;;;;;;23.23;14.02;;;18.20;94.90;;;16.71;94.90;101333.69;5007899;28;20057;-71
2021/09/07 07:04:32;;;;;;;21.70;13.00;;;18.30;94.70;;;16.74;95.31;101339.63;5008131;28;20132;-70
2021/09/07 07:07:02;;;;;;;26.80;13.88;;;18.40;94.70;;;16.81;95.05;101345.13;5007735;28;20042;-71
2021/09/07 07:09:30;;;;;;;26.27;14.30;;;18.40;94.20;;;16.83;95.19;101343.06;5006587;28;20064;-72
2021/09/07 07:11:58;;;;;;;30.05;13.55;;;18.50;94.00;;;16.86;94.44;101345.41;5016398;28;20080;-72
2021/09/07 07:14:25;;;;;;;24.90;13.80;;;18.60;93.10;;;16.92;94.31;101350.06;5006843;28;20073;-72
2021/09/07 07:16:53;;;;;;;27.05;14.25;;;18.70;93.00;;;16.95;93.95;101351.56;5007605;28;20096;-71
2021/09/07 07:19:21;;;;;;;28.10;14.00;;;18.70;92.80;;;16.97;93.47;101354.97;5006460;28;20453;-71
2021/09/07 07:21:49;;;;;;;29.27;13.77;;;18.70;92.60;;;17.01;93.91;101353.50;5006935;28;20076;-72
2021/09/07 07:24:17;;;;;;;23.77;13.95;;;18.80;92.70;;;17.03;94.01;101354.13;5006860;28;20050;-72
2021/09/07 07:26:46;;;;;;;26.50;15.30;;;18.80;92.80;;;17.07;93.39;101360.06;4995842;28;20082;-72
2021/09/07 07:29:15;;;;;;;25.05;15.10;;;18.90;92.30;;;17.08;93.09;101362.63;5002777;28;20120;-72
2021/09/07 07:31:43;;;;;;;23.15;14.70;;;18.80;91.90;;;17.12;92.79;101365.81;5007646;28;20045;-72
2021/09/07 07:34:11;;;;;;;23.33;13.55;;;18.80;91.90;;;17.14;93.15;101372.78;5008312;28;20069;-70
2021/09/07 07:36:38;;;;;;;21.50;13.90;;;18.90;92.20;;;17.18;92.25;101367.72;5007678;28;20057;-71
2021/09/07 07:39:05;;;;;;;25.77;13.80;;;18.90;91.50;;;17.20;92.19;101365.59;4992486;28;20112;-72
2021/09/07 07:41:33;;;;;;;24.27;15.05;;;18.90;91.40;;;17.23;90.95;101370.69;4987780;28;20112;-72
2021/09/07 07:44:01;;;;;;;25.70;14.07;;;18.90;90.10;;;17.25;91.12;101379.59;4988673;28;20502;-71
2021/09/07 07:46:29;;;;;;;22.13;13.82;;;18.90;91.10;;;17.28;91.06;101375.56;4988019;28;20104;-71
2021/09/07 07:48:56;;;;;;;25.02;14.18;;;19.00;90.90;;;17.31;90.99;101377.91;4989247;28;20038;-71
2021/09/07 07:51:24;;;;;;;26.23;14.98;;;19.00;91.10;;;17.33;91.33;101371.13;4997346;28;20064;-72
2021/09/07 07:53:51;;;;;;;27.13;14.80;;;19.10;91.00;;;17.36;91.13;101375.38;5006616;28;20532;-71
2021/09/07 07:56:21;;;;;;;26.77;14.38;;;19.20;90.50;;;17.39;90.46;101374.97;5006796;28;20104;-71
2021/09/07 07:58:50;;;;;;;26.02;14.45;;;19.20;89.90;;;17.43;90.00;101381.72;4994664;28;20068;-71
2021/09/07 08:01:19;;;;;;;30.13;15.82;;;19.30;89.40;;;17.46;89.16;101381.34;4987274;28;20553;-73
2021/09/07 08:03:47;;;;;;;28.15;14.52;;;19.30;88.30;;;17.49;89.08;101375.38;4989654;28;20052;-72
2021/09/07 08:06:14;;;;;;;25.50;14.65;;;19.30;88.30;;;17.51;88.32;101378.78;5006809;28;20246;-70
2021/09/07 08:08:41;;;;;;;27.02;15.35;;;19.40;87.10;;;17.55;87.79;101385.59;5009748;28;20049;-71
2021/09/07 08:11:09;;;;;;;27.48;15.93;;;19.40;87.00;;;17.58;87.87;101378.81;5006609;28;20042;-70
2021/09/07 08:13:36;;;;;;;27.98;15.30;;;19.50;87.30;;;17.62;87.78;101380.06;5006867;28;20096;-70
2021/09/07 08:16:04;;;;;;;28.67;15.57;;;19.60;87.20;;;17.66;87.90;101378.59;5007025;28;20054;-70
2021/09/07 08:18:32;;;;;;;28.83;16.48;;;19.70;87.60;;;17.70;87.75;101381.78;5000411;28;20054;-70
2021/09/07 08:21:01;;;;;;;29.63;15.60;;;19.70;86.60;;;17.74;87.73;101383.91;4988164;28;20141;-71
2021/09/07 08:23:28;;;;;;;28.42;15.38;;;19.80;86.80;;;17.78;87.61;101381.56;4988433;28;20580;-70
2021/09/07 08:25:56;;;;;;;26.90;15.02;;;19.90;86.80;;;17.83;87.95;101381.78;5025036;28;20060;-70
2021/09/07 08:28:23;;;;;;;30.08;14.95;;;20.00;86.30;;;17.89;87.93;101380.94;5016333;28;20042;-70
2021/09/07 08:30:50;;;;;;;24.73;14.63;;;20.10;86.30;;;17.94;88.59;101388.59;4993885;28;20050;-70
2021/09/07 08:33:19;;;;;;;29.20;16.05;;;20.20;86.70;;;18.00;88.48;101389.66;4988302;28;20046;-70
2021/09/07 08:35:48;;;;;;;30.70;16.98;;;20.30;86.30;;;18.03;88.01;101389.22;4988730;28;20054;-70
2021/09/07 08:38:15;;;;;;;31.35;16.42;;;20.30;86.00;;;18.08;88.51;101397.69;4994669;28;20057;-70
2021/09/07 08:40:42;;;;;;;31.67;15.90;;;20.40;86.40;;;18.14;88.46;101389.44;5006794;28;20053;-70
2021/09/07 08:43:10;;;;;;;32.55;16.77;;;20.50;86.20;;;18.18;87.78;101392.59;4992017;28;20062;-70
2021/09/07 08:45:39;;;;;;;29.98;15.82;;;20.60;85.60;;;18.24;87.91;101390.88;4997257;28;20490;-70
2021/09/07 08:48:07;;;;;;;30.13;16.25;;;20.70;85.70;;;18.28;88.96;101390.25;5006877;28;20073;-70
2021/09/07 08:50:36;;;;;;;28.10;16.50;;;20.80;85.90;;;18.32;88.29;101386.00;5012046;28;20050;-71
2021/09/07 08:53:04;;;;;;;32.38;17.40;;;20.90;85.20;;;18.38;86.97;101394.50;5011540;28;20504;-70
2021/09/07 08:55:32;;;;;;;27.77;16.65;;;20.90;84.20;;;18.45;85.74;101390.66;5011028;28;20072;-70
2021/09/07 08:57:59;;;;;;;29.98;17.08;;;21.00;83.70;;;18.50;86.91;101387.25;5005834;28;20050;-70
2021/09/07 09:00:28;;;;;;;30.55;16.70;;;21.10;83.60;;;18.52;84.74;101391.50;4990972;28;20053;-70
2021/09/07 09:02:58;;;;;;;28.27;16.48;;;21.20;81.50;;;18.60;85.74;101386.78;4991376;28;20054;-70
2021/09/07 09:05:28;;;;;;;27.33;15.85;;;21.20;82.90;;;18.67;84.15;101377.44;5008377;28;20104;-70
2021/09/07 09:07:56;;;;;;;27.67;15.18;;;21.30;81.90;;;18.75;85.63;101374.44;5006558;28;20038;-70
2021/09/07 09:10:27;;;;;;;28.50;14.88;;;21.40;82.40;;;18.79;84.89;101369.34;5005599;28;20092;-70
2021/09/07 09:13:07;;;;;;;25.27;13.98;;;21.50;82.20;;;18.85;85.48;101373.16;5009821;28;20045;-70
2021/09/07 09:15:38;;;;;;;24.38;14.43;;;21.50;82.50;;;18.88;83.98;101378.25;5010317;28;20682;-70
2021/09/07 09:18:09;;;;;;;27.95;15.10;;;21.50;81.60;;;18.89;83.54;101368.91;5009640;28;20057;-69
2021/09/07 09:20:37;;;;;;;25.52;13.85;;;21.50;81.00;;;18.91;83.44;101370.38;5010052;28;20163;-71
2021/09/07 09:23:06;;;;;;;24.00;13.20;;;21.60;80.30;;;18.97;81.21;101371.41;5008801;28;20596;-71
2021/09/07 09:25:46;;;;;;;25.65;13.27;;;21.60;79.50;;;19.02;82.47;101367.97;5005736;28;20042;-71
2021/09/07 09:28:21;;;;;;;21.75;13.13;;;21.70;80.40;;;19.06;81.16;101375.63;5003145;28;20050;-71
2021/09/07 09:30:59;;;;;;;20.70;11.80;;;21.70;79.20;;;19.09;79.95;101371.56;5007646;28;20456;-71
2021/09/07 09:33:33;;;;;;;24.92;13.20;;;21.80;77.70;;;19.14;79.53;101366.25;5016317;28;20145;-73
2021/09/07 09:36:03;;;;;;;21.92;12.70;;;21.80;77.90;;;19.18;78.76;101367.47;5005309;28;20113;-73
2021/09/07 09:38:36;;;;;;;25.13;13.13;;;21.80;77.10;;;19.20;78.15;101367.28;5007299;28;20137;-72
2021/09/07 09:41:07;;;;;;;28.00;12.40;;;21.90;76.90;;;19.22;77.78;101362.38;5014402;28;20494;-72
2021/09/07 09:43:43;;;;;;;;;;;21.90;76.60;;;19.28;76.27;101367.84;5004300;28;20070;-72
2021/09/07 09:46:21;;;;;;;17.35;10.00;;;22.00;75.80;;;19.35;75.78;101367.81;5011555;28;19921;-72
2021/09/07 09:48:50;;;;;;;21.35;10.32;;;22.00;75.00;;;19.38;73.72;101356.34;5002277;28;20133;-71
2021/09/07 09:51:28;;;;;;;18.48;9.82;;;22.10;73.40;;;19.42;74.92;101357.59;5002618;28;20395;-72
2021/09/07 09:53:58;;;;;;;18.05;10.15;;;22.10;74.00;;;19.44;71.87;101349.91;5011275;28;20113;-72
2021/09/07 09:56:29;;;;;;;16.17;10.27;;;22.20;72.40;;;19.48;74.02;101344.81;5015104;28;20041;-71
2021/09/07 09:58:57;;;;;;;18.90;10.75;;;22.20;73.70;;;19.53;74.22;101347.72;5001540;28;20046;-72
2021/09/07 10:01:28;;;;;;;18.58;9.65;;;22.20;73.60;;;19.59;72.15;101354.25;5008736;28;20053;-71
2021/09/07 10:04:00;;;;;;;17.60;9.05;;;22.20;72.40;;;19.59;69.46;101346.84;5002511;28;20050;-73
2021/09/07 10:06:30;;;;;;;15.70;8.15;;;22.20;71.10;;;19.62;69.21;101340.00;5015052;28;20054;-72